createdAt,value
2017-08-07T00:02:26.025Z,14.10
2017-08-07T00:04:53.300Z,14.20
2017-08-07T00:07:20.064Z,14.20
2017-08-07T00:09:47.121Z,14.20
2017-08-07T00:12:13.932Z,14.20
2017-08-07T00:14:40.796Z,14.20
2017-08-07T00:17:08.077Z,14.20
2017-08-07T00:19:34.832Z,14.20
2017-08-07T00:22:01.593Z,14.20
2017-08-07T00:24:28.784Z,14.10
2017-08-07T00:26:56.089Z,14.10
2017-08-07T00:29:22.856Z,14.10
2017-08-07T00:31:49.954Z,14.00
2017-08-07T00:34:17.199Z,14.00
2017-08-07T00:36:44.004Z,13.90
2017-08-07T00:39:13.437Z,13.90
2017-08-07T00:41:43.200Z,13.90
2017-08-07T00:44:10.354Z,13.90
2017-08-07T00:46:37.543Z,13.90
2017-08-07T00:49:04.360Z,13.80
2017-08-07T00:51:31.507Z,13.80
2017-08-07T00:53:58.965Z,13.80
2017-08-07T00:56:26.257Z,13.70
2017-08-07T00:58:53.642Z,13.70
2017-08-07T01:01:21.284Z,13.70
2017-08-07T01:03:48.312Z,13.70
2017-08-07T01:06:15.457Z,13.70
2017-08-07T01:08:42.708Z,13.60
2017-08-07T01:11:10.073Z,13.60
2017-08-07T01:13:36.848Z,13.60
2017-08-07T01:16:03.654Z,13.40
2017-08-07T01:18:31.029Z,13.50
2017-08-07T01:20:57.914Z,13.50
2017-08-07T01:23:24.969Z,13.50
2017-08-07T01:25:51.964Z,13.60
2017-08-07T01:28:18.810Z,13.60
2017-08-07T01:30:45.576Z,13.50
2017-08-07T01:33:12.948Z,13.50
2017-08-07T01:35:40.285Z,13.50
2017-08-07T01:38:07.072Z,13.40
2017-08-07T01:40:34.444Z,13.40
2017-08-07T01:43:01.716Z,13.40
2017-08-07T01:45:28.648Z,13.40
2017-08-07T01:47:55.720Z,13.40
2017-08-07T01:50:22.836Z,13.30
2017-08-07T01:52:50.335Z,13.20
2017-08-07T01:55:17.205Z,13.20
2017-08-07T01:57:44.295Z,13.20
2017-08-07T02:00:11.231Z,13.20
2017-08-07T02:02:38.634Z,13.30
2017-08-07T02:05:05.432Z,13.30
2017-08-07T02:07:32.261Z,13.30
2017-08-07T02:09:59.674Z,13.30
2017-08-07T02:12:26.464Z,13.30
2017-08-07T02:14:53.275Z,13.30
2017-08-07T02:17:20.036Z,13.30
2017-08-07T02:19:47.056Z,13.30
2017-08-07T02:22:14.320Z,13.20
2017-08-07T02:24:42.916Z,13.20
2017-08-07T02:27:09.695Z,13.20
2017-08-07T02:29:37.208Z,13.10
2017-08-07T02:32:04.789Z,13.10
2017-08-07T02:34:32.205Z,13.10
2017-08-07T02:36:59.225Z,13.10
2017-08-07T02:39:26.432Z,13.00
2017-08-07T02:41:53.681Z,13.00
2017-08-07T02:44:21.011Z,13.00
2017-08-07T02:46:47.986Z,13.00
2017-08-07T02:49:15.032Z,13.00
2017-08-07T02:51:42.303Z,13.00
2017-08-07T02:54:09.143Z,13.00
2017-08-07T02:56:36.192Z,12.90
2017-08-07T02:59:02.960Z,12.90
2017-08-07T03:01:29.904Z,12.90
2017-08-07T03:03:56.676Z,12.90
2017-08-07T03:06:23.994Z,12.90
2017-08-07T03:08:50.822Z,12.80
2017-08-07T03:11:17.949Z,12.80
2017-08-07T03:13:44.776Z,12.80
2017-08-07T03:16:22.106Z,12.70
2017-08-07T04:23:00.651Z,12.50
2017-08-07T04:25:27.588Z,12.60
2017-08-07T04:27:54.649Z,12.50
2017-08-07T04:30:21.565Z,12.50
2017-08-07T04:32:48.396Z,12.50
2017-08-07T04:35:15.185Z,12.50
2017-08-07T04:37:43.976Z,12.50
2017-08-07T04:40:11.113Z,12.50
2017-08-07T04:42:38.330Z,12.20
2017-08-07T04:45:06.216Z,12.50
2017-08-07T04:47:33.163Z,12.50
2017-08-07T04:50:00.040Z,12.50
2017-08-07T04:52:27.401Z,12.50
2017-08-07T04:54:54.354Z,12.50
2017-08-07T04:57:21.476Z,12.40
2017-08-07T04:59:48.525Z,12.50
2017-08-07T05:02:15.718Z,12.40
2017-08-07T05:04:43.260Z,12.40
2017-08-07T05:07:10.849Z,12.40
2017-08-07T05:09:38.331Z,12.50
2017-08-07T05:12:05.220Z,12.50
2017-08-07T05:14:32.146Z,12.60
2017-08-07T05:16:59.545Z,12.60
2017-08-07T05:19:26.753Z,12.70
2017-08-07T05:21:53.661Z,12.70
2017-08-07T05:24:20.442Z,12.70
2017-08-07T05:26:47.872Z,12.80
2017-08-07T05:29:14.862Z,12.80
2017-08-07T05:31:42.032Z,12.80
2017-08-07T05:34:09.201Z,12.90
2017-08-07T05:36:36.634Z,12.90
2017-08-07T05:39:03.596Z,13.00
2017-08-07T05:41:30.688Z,13.10
2017-08-07T05:43:57.844Z,13.10
2017-08-07T05:46:26.437Z,13.20
2017-08-07T05:48:53.219Z,13.30
2017-08-07T05:51:20.608Z,13.30
2017-08-07T05:53:47.449Z,13.40
2017-08-07T05:56:14.216Z,13.50
2017-08-07T05:58:41.548Z,13.60
2017-08-07T06:01:09.006Z,13.60
2017-08-07T06:03:36.050Z,13.70
2017-08-07T06:06:03.193Z,13.80
2017-08-07T06:08:30.418Z,13.80
2017-08-07T06:10:57.813Z,13.90
2017-08-07T06:13:25.206Z,13.90
2017-08-07T06:15:52.078Z,14.00
2017-08-07T06:18:19.218Z,14.00
2017-08-07T06:20:46.378Z,14.10
2017-08-07T06:23:13.288Z,14.20
2017-08-07T06:25:40.434Z,14.20
2017-08-07T06:28:08.192Z,14.30
2017-08-07T06:30:35.766Z,14.30
2017-08-07T06:33:03.054Z,14.40
2017-08-07T06:35:29.889Z,14.50
2017-08-07T06:37:57.044Z,14.60
2017-08-07T06:40:25.044Z,14.60
2017-08-07T06:42:51.877Z,14.70
2017-08-07T06:45:19.380Z,14.70
2017-08-07T06:47:46.193Z,14.70
2017-08-07T06:50:12.947Z,14.70
2017-08-07T06:52:39.764Z,14.80
2017-08-07T06:55:06.820Z,14.90
2017-08-07T06:57:34.047Z,15.00
2017-08-07T07:00:01.548Z,15.00
2017-08-07T07:02:28.969Z,15.00
2017-08-07T07:04:56.561Z,15.20
2017-08-07T07:07:24.145Z,15.30
2017-08-07T07:09:50.903Z,15.40
2017-08-07T07:12:18.176Z,15.50
2017-08-07T07:14:45.056Z,15.60
2017-08-07T07:17:12.412Z,15.70
2017-08-07T07:19:39.221Z,15.80
2017-08-07T07:22:06.459Z,15.90
2017-08-07T07:24:33.768Z,16.00
2017-08-07T07:27:01.228Z,16.10
2017-08-07T07:29:28.399Z,16.20
2017-08-07T07:31:55.152Z,16.30
2017-08-07T07:34:22.447Z,16.40
2017-08-07T07:36:49.275Z,16.50
2017-08-07T07:39:16.301Z,16.40
2017-08-07T07:41:43.489Z,16.50
2017-08-07T07:44:10.965Z,16.60
2017-08-07T07:46:37.968Z,16.80
2017-08-07T07:49:05.077Z,16.90
2017-08-07T07:51:31.877Z,17.00
2017-08-07T07:53:58.633Z,17.10
2017-08-07T07:56:25.838Z,17.20
2017-08-07T07:58:52.960Z,17.40
2017-08-07T08:01:19.783Z,17.50
2017-08-07T08:03:46.648Z,17.70
2017-08-07T08:06:13.907Z,17.80
2017-08-07T08:08:40.739Z,18.00
2017-08-07T08:11:07.549Z,18.10
2017-08-07T08:13:34.319Z,18.30
2017-08-07T08:16:01.375Z,18.40
2017-08-07T08:18:28.469Z,18.50
2017-08-07T08:20:55.829Z,18.60
2017-08-07T08:23:22.651Z,18.70
2017-08-07T08:25:49.679Z,18.70
2017-08-07T08:28:16.974Z,18.70
2017-08-07T08:30:44.471Z,18.70
2017-08-07T08:33:14.292Z,18.90
2017-08-07T08:35:41.060Z,19.10
2017-08-07T08:38:07.877Z,19.20
2017-08-07T08:40:35.189Z,19.30
2017-08-07T08:43:02.577Z,19.30
2017-08-07T08:45:29.528Z,19.40
2017-08-07T08:47:56.726Z,19.40
2017-08-07T08:50:24.004Z,19.40
2017-08-07T08:52:51.385Z,19.60
2017-08-07T08:55:18.343Z,19.70
2017-08-07T08:57:45.405Z,19.80
2017-08-07T09:00:13.205Z,19.90
2017-08-07T09:02:40.197Z,19.90
2017-08-07T09:05:07.549Z,20.00
2017-08-07T09:07:34.429Z,20.00
2017-08-07T09:10:01.604Z,20.10
2017-08-07T09:12:28.906Z,20.30
2017-08-07T09:14:57.500Z,20.30
2017-08-07T09:17:24.321Z,20.40
2017-08-07T09:19:51.678Z,20.50
2017-08-07T09:22:18.524Z,20.70
2017-08-07T09:24:45.784Z,20.80
2017-08-07T09:27:12.909Z,21.00
2017-08-07T09:29:40.383Z,21.10
2017-08-07T09:32:07.839Z,21.20
2017-08-07T09:34:34.684Z,21.20
2017-08-07T09:37:01.893Z,21.30
2017-08-07T09:39:29.233Z,21.40
2017-08-07T09:41:56.645Z,21.60
2017-08-07T09:44:23.512Z,21.60
2017-08-07T09:46:50.676Z,21.70
2017-08-07T09:49:17.490Z,21.60
2017-08-07T09:51:44.262Z,21.50
2017-08-07T09:54:11.336Z,21.60
2017-08-07T09:56:38.137Z,21.60
2017-08-07T09:59:06.395Z,21.70
2017-08-07T10:01:33.203Z,21.90
2017-08-07T10:04:00.391Z,22.00
2017-08-07T10:06:27.871Z,22.20
2017-08-07T10:08:55.184Z,22.30
2017-08-07T10:11:22.453Z,22.40
2017-08-07T10:13:49.258Z,22.30
2017-08-07T10:16:16.500Z,22.30
2017-08-07T10:18:43.264Z,22.30
2017-08-07T10:21:10.272Z,22.30
2017-08-07T10:23:37.341Z,22.40
2017-08-07T10:26:04.095Z,22.60
2017-08-07T10:28:34.716Z,22.70
2017-08-07T10:31:02.124Z,22.80
2017-08-07T10:33:28.881Z,23.00
2017-08-07T10:35:55.685Z,23.20
2017-08-07T10:38:23.061Z,23.30
2017-08-07T10:40:49.816Z,23.40
2017-08-07T10:43:16.954Z,23.30
2017-08-07T10:45:44.239Z,23.20
2017-08-07T10:48:11.658Z,23.30
2017-08-07T10:50:39.117Z,23.40
2017-08-07T10:53:05.964Z,23.50
2017-08-07T10:55:33.168Z,23.70
2017-08-07T10:57:59.917Z,23.90
2017-08-07T11:00:26.668Z,24.10
2017-08-07T11:02:53.597Z,24.10
2017-08-07T11:05:20.504Z,24.00
2017-08-07T11:07:47.265Z,24.00
2017-08-07T11:10:14.672Z,24.00
2017-08-07T11:12:42.037Z,24.10
2017-08-07T11:15:08.832Z,24.20
2017-08-07T11:17:36.092Z,24.30
2017-08-07T11:20:02.873Z,24.40
2017-08-07T11:22:29.860Z,24.40
2017-08-07T11:24:56.708Z,24.50
2017-08-07T11:27:23.599Z,24.40
2017-08-07T11:29:50.414Z,24.50
2017-08-07T11:32:17.880Z,24.60
2017-08-07T11:34:45.167Z,24.80
2017-08-07T11:37:11.982Z,24.90
2017-08-07T11:39:39.336Z,25.10
2017-08-07T11:42:06.567Z,25.00
2017-08-07T11:44:33.377Z,24.90
2017-08-07T11:47:00.356Z,25.00
2017-08-07T11:49:27.114Z,25.30
2017-08-07T11:51:54.702Z,25.50
2017-08-07T11:54:21.513Z,25.50
2017-08-07T11:56:48.288Z,25.50
2017-08-07T11:59:15.682Z,25.50
2017-08-07T12:01:42.997Z,25.70
2017-08-07T12:04:10.017Z,25.80
2017-08-07T12:06:36.824Z,26.00
2017-08-07T12:09:04.563Z,26.00
2017-08-07T12:11:31.384Z,25.80
2017-08-07T12:13:58.372Z,26.00
2017-08-07T12:16:25.150Z,26.00
2017-08-07T12:18:51.945Z,26.10
2017-08-07T12:21:18.697Z,26.20
2017-08-07T12:23:45.457Z,26.40
2017-08-07T12:26:13.617Z,26.60
2017-08-07T12:28:40.387Z,26.80
2017-08-07T12:31:07.152Z,27.00
2017-08-07T12:33:33.975Z,26.90
2017-08-07T12:36:01.149Z,26.90
2017-08-07T12:38:28.336Z,26.90
2017-08-07T12:40:55.243Z,26.80
2017-08-07T12:43:22.764Z,26.90
2017-08-07T12:45:49.597Z,27.00
2017-08-07T12:48:16.683Z,27.20
2017-08-07T12:50:44.214Z,27.50
2017-08-07T12:53:12.061Z,27.50
2017-08-07T12:55:39.591Z,27.50
2017-08-07T12:58:07.501Z,27.50
2017-08-07T13:00:34.481Z,27.50
2017-08-07T13:03:01.605Z,27.30
2017-08-07T13:05:28.996Z,27.50
2017-08-07T13:07:56.631Z,27.70
2017-08-07T13:10:23.493Z,28.00
2017-08-07T13:12:50.252Z,28.20
2017-08-07T13:15:17.490Z,28.20
2017-08-07T13:17:46.508Z,28.20
2017-08-07T13:20:13.445Z,28.10
2017-08-07T13:22:40.212Z,28.30
2017-08-07T13:25:07.161Z,28.50
2017-08-07T13:27:33.982Z,28.60
2017-08-07T13:30:00.802Z,28.70
2017-08-07T13:32:27.624Z,28.60
2017-08-07T13:34:54.581Z,28.80
2017-08-07T13:37:21.427Z,28.80
2017-08-07T13:39:48.237Z,28.80
2017-08-07T13:42:15.121Z,28.90
2017-08-07T13:44:41.879Z,29.00
2017-08-07T13:47:08.685Z,29.00
2017-08-07T13:49:35.502Z,29.00
2017-08-07T13:52:02.320Z,29.10
2017-08-07T13:54:29.126Z,29.10
2017-08-07T13:56:56.001Z,29.20
2017-08-07T13:59:22.806Z,29.10
2017-08-07T14:01:49.693Z,29.10
2017-08-07T14:04:16.516Z,29.20
2017-08-07T14:06:43.330Z,29.20
2017-08-07T14:09:10.312Z,29.30
2017-08-07T14:11:37.120Z,29.20
2017-08-07T14:14:05.595Z,29.30
2017-08-07T14:16:32.481Z,29.20
2017-08-07T14:18:59.239Z,29.30
2017-08-07T14:21:26.005Z,29.50
2017-08-07T14:23:52.815Z,29.50
2017-08-07T14:26:19.590Z,29.30
2017-08-07T14:28:46.324Z,29.40
2017-08-07T14:31:13.188Z,29.20
2017-08-07T14:33:40.036Z,29.10
2017-08-07T14:36:06.856Z,29.00
2017-08-07T14:38:33.744Z,29.20
2017-08-07T14:41:00.523Z,29.50
2017-08-07T14:43:27.336Z,29.60
2017-08-07T14:45:54.188Z,29.70
2017-08-07T14:48:20.984Z,29.70
2017-08-07T14:50:47.824Z,29.70
2017-08-07T14:53:14.625Z,29.70
2017-08-07T14:55:41.395Z,29.70
2017-08-07T14:58:08.152Z,29.50
2017-08-07T15:00:38.688Z,29.50
2017-08-07T15:03:05.435Z,29.40
2017-08-07T15:05:32.201Z,29.30
2017-08-07T15:07:59.028Z,29.30
2017-08-07T15:10:25.866Z,29.30
2017-08-07T15:12:52.672Z,29.30
2017-08-07T15:15:19.532Z,29.30
2017-08-07T15:17:46.269Z,29.40
2017-08-07T15:20:13.224Z,29.30
2017-08-07T15:22:40.915Z,29.20
2017-08-07T15:25:08.169Z,29.20
2017-08-07T15:27:35.058Z,29.00
2017-08-07T15:30:02.953Z,28.80
2017-08-07T15:32:29.704Z,28.80
2017-08-07T15:34:56.501Z,28.80
2017-08-07T15:37:23.236Z,28.80
2017-08-07T15:39:49.985Z,28.60
2017-08-07T15:42:16.784Z,28.50
2017-08-07T15:44:43.543Z,28.40
2017-08-07T15:47:10.352Z,28.60
2017-08-07T15:49:37.104Z,28.40
2017-08-07T15:52:03.852Z,28.40
2017-08-07T15:54:30.742Z,28.30
2017-08-07T15:56:57.634Z,28.30
2017-08-07T15:59:24.758Z,28.20
2017-08-07T16:01:51.866Z,28.10
2017-08-07T16:04:19.193Z,27.90
2017-08-07T16:06:46.612Z,27.90
2017-08-07T16:09:13.546Z,27.80
2017-08-07T16:11:40.748Z,27.80
2017-08-07T16:14:08.342Z,27.70
2017-08-07T16:16:35.696Z,27.60
2017-08-07T16:19:02.832Z,27.60
2017-08-07T16:21:29.805Z,27.60
2017-08-07T16:23:57.032Z,27.60
2017-08-07T16:26:24.379Z,27.50
2017-08-07T16:28:51.605Z,27.40
2017-08-07T16:31:18.485Z,27.30
2017-08-07T16:33:47.252Z,27.30
2017-08-07T16:36:14.671Z,27.20
2017-08-07T16:38:41.590Z,27.10
2017-08-07T16:41:08.792Z,27.10
2017-08-07T16:43:35.688Z,27.40
2017-08-07T16:46:02.668Z,28.30
2017-08-07T16:48:29.996Z,29.80
2017-08-07T16:50:56.806Z,31.10
2017-08-07T16:53:24.955Z,32.00
2017-08-07T16:55:55.428Z,32.40
2017-08-07T16:58:23.378Z,31.80
2017-08-07T17:00:50.545Z,31.50
2017-08-07T17:03:17.804Z,31.80
2017-08-07T17:05:45.248Z,33.30
2017-08-07T17:10:55.309Z,37.10
2017-08-07T17:13:22.184Z,38.60
2017-08-07T17:15:49.323Z,38.80
2017-08-07T17:18:17.804Z,39.70
2017-08-07T17:20:45.505Z,40.60
2017-08-07T17:23:12.464Z,41.00
2017-08-07T17:25:39.759Z,40.60
2017-08-07T17:28:08.157Z,39.10
2017-08-07T17:30:35.498Z,36.80
2017-08-07T17:33:03.633Z,34.60
2017-08-07T17:35:30.605Z,32.60
2017-08-07T17:37:57.879Z,31.00
2017-08-07T17:40:24.768Z,29.80
2017-08-07T17:42:51.712Z,28.90
2017-08-07T17:45:18.612Z,28.30
2017-08-07T17:47:46.108Z,27.80
2017-08-07T17:50:13.046Z,27.40
2017-08-07T17:52:40.193Z,27.00
2017-08-07T17:55:07.237Z,26.70
2017-08-07T17:57:34.764Z,26.40
2017-08-07T18:00:02.369Z,26.20
2017-08-07T18:02:29.950Z,25.90
2017-08-07T18:04:57.392Z,25.70
2017-08-07T18:07:24.561Z,25.50
2017-08-07T18:09:51.416Z,25.40
2017-08-07T18:12:18.934Z,25.30
2017-08-07T18:14:46.456Z,25.10
2017-08-07T18:17:13.924Z,25.00
2017-08-07T18:19:41.127Z,24.80
2017-08-07T18:22:07.988Z,24.60
2017-08-07T18:24:35.208Z,24.50
2017-08-07T18:27:02.089Z,24.30
2017-08-07T18:29:28.911Z,24.00
2017-08-07T18:31:56.148Z,23.90
2017-08-07T18:34:23.496Z,23.80
2017-08-07T18:36:50.307Z,23.60
2017-08-07T18:39:17.528Z,23.40
2017-08-07T18:41:44.975Z,23.30
2017-08-07T18:44:11.937Z,23.20
2017-08-07T18:46:38.776Z,23.10
2017-08-07T18:49:05.896Z,23.00
2017-08-07T18:51:32.882Z,22.80
2017-08-07T18:53:59.747Z,22.60
2017-08-07T18:56:26.997Z,22.50
2017-08-07T18:58:54.379Z,22.40
2017-08-07T19:01:21.233Z,22.30
2017-08-07T19:03:48.130Z,22.20
2017-08-07T19:06:15.319Z,22.20
2017-08-07T19:08:42.692Z,22.00
2017-08-07T19:11:11.565Z,21.90
2017-08-07T19:13:38.376Z,21.80
2017-08-07T19:16:05.882Z,21.60
2017-08-07T19:18:32.745Z,21.60
2017-08-07T19:20:59.807Z,21.50
2017-08-07T19:23:27.012Z,21.40
2017-08-07T19:25:54.383Z,21.30
2017-08-07T19:28:21.196Z,21.30
2017-08-07T19:30:48.058Z,21.20
2017-08-07T19:33:14.953Z,21.20
2017-08-07T19:35:41.988Z,21.20
2017-08-07T19:38:09.100Z,21.10
2017-08-07T19:40:36.562Z,21.00
2017-08-07T19:43:03.920Z,21.00
2017-08-07T19:45:30.892Z,20.90
2017-08-07T19:47:57.700Z,20.90
2017-08-07T19:50:24.512Z,20.80
2017-08-07T19:52:51.634Z,20.70
2017-08-07T19:55:18.503Z,20.70
2017-08-07T19:57:45.397Z,20.70
2017-08-07T20:00:12.294Z,20.60
2017-08-07T20:02:39.471Z,20.60
2017-08-07T20:05:06.275Z,20.50
2017-08-07T20:07:33.125Z,20.50
2017-08-07T20:09:59.913Z,20.40
2017-08-07T20:12:26.756Z,20.40
2017-08-07T20:14:53.936Z,20.30
2017-08-07T20:17:20.854Z,20.30
2017-08-07T20:19:47.782Z,20.30
2017-08-07T20:22:14.688Z,20.20
2017-08-07T20:24:41.568Z,20.10
2017-08-07T20:27:08.566Z,20.00
2017-08-07T20:29:35.462Z,20.00
2017-08-07T20:32:02.271Z,19.90
2017-08-07T20:34:29.328Z,19.90
2017-08-07T20:36:56.468Z,19.80
2017-08-07T20:39:23.386Z,19.90
2017-08-07T20:41:50.307Z,19.80
2017-08-07T20:44:17.564Z,19.80
2017-08-07T20:46:44.336Z,19.70
2017-08-07T20:49:11.454Z,19.70
2017-08-07T20:51:38.519Z,19.70
2017-08-07T20:54:05.906Z,19.50
2017-08-07T20:56:33.417Z,19.50
2017-08-07T20:59:00.222Z,19.50
2017-08-07T21:01:28.050Z,19.40
2017-08-07T21:03:54.899Z,19.30
2017-08-07T21:06:21.882Z,19.30
2017-08-07T21:08:48.692Z,19.30
2017-08-07T21:11:15.531Z,19.20
2017-08-07T21:13:42.762Z,19.20
2017-08-07T21:16:09.763Z,19.20
2017-08-07T21:18:37.141Z,19.20
2017-08-07T21:21:04.352Z,19.20
2017-08-07T21:23:31.663Z,19.20
2017-08-07T21:25:58.536Z,19.10
2017-08-07T21:28:25.377Z,19.10
2017-08-07T21:30:52.796Z,19.10
2017-08-07T21:33:19.742Z,19.00
2017-08-07T21:35:46.598Z,18.90
2017-08-07T21:38:13.416Z,18.90
2017-08-07T21:40:40.452Z,18.80
2017-08-07T21:43:07.697Z,18.80
2017-08-07T21:45:34.956Z,18.80
2017-08-07T21:48:02.390Z,18.80
2017-08-07T21:50:29.705Z,18.80
2017-08-07T21:52:56.716Z,18.80
2017-08-07T21:55:23.701Z,18.70
2017-08-07T21:57:50.496Z,18.70
2017-08-07T22:00:19.148Z,18.70
2017-08-07T22:02:45.912Z,18.70
2017-08-07T22:05:12.681Z,18.70
2017-08-07T22:07:39.778Z,18.70
2017-08-07T22:10:07.114Z,18.70
2017-08-07T22:12:34.062Z,18.60
